LDSP

Split Airport

Airport
ICAO code
LDSP
IATA Code
SPU
Summary
ICAO Region
EUR
ICAO Territory
Location

Kastela, Dalmatia

Serving
Split
Elevation
78 ft
Coordinates
43° 32' 20" N , 16° 17' 53" E
KCC
Metar
LDSP 152300Z 31010KT CAVOK 30/14 Q1010 NOSIG

Description

International airport serving Split, Croatia.

Climatology

Dry-summer subtropical ”Mediterranean" climate (Köppen climate classification Csa)

Runways

Designator Length Width Surface Rops
5/23 2550 45 ASP Yes/Yes

Airport map

Aerial View

SKYbrary Partners:

Safety knowledge contributed by: